createdAt,value
2024-03-08T00:00:14.542Z,4.91
2024-03-08T00:02:45.016Z,4.85
2024-03-08T00:05:13.393Z,4.53
2024-03-08T00:07:42.416Z,4.94
2024-03-08T00:10:13.053Z,4.62
2024-03-08T00:12:42.872Z,4.76
2024-03-08T00:15:11.799Z,4.78
2024-03-08T00:17:39.848Z,4.76
2024-03-08T00:20:10.667Z,4.73
2024-03-08T00:22:38.542Z,4.59
2024-03-08T00:25:09.726Z,4.82
2024-03-08T00:27:37.533Z,4.63
2024-03-08T00:30:05.956Z,4.45
2024-03-08T00:32:33.828Z,4.49
2024-03-08T00:35:01.587Z,4.56
2024-03-08T00:37:30.567Z,4.38
2024-03-08T00:39:58.176Z,4.57
2024-03-08T00:42:26.059Z,4.59
2024-03-08T00:44:53.876Z,4.76
2024-03-08T00:47:21.553Z,4.86
2024-03-08T00:49:49.157Z,4.44
2024-03-08T00:52:16.969Z,4.51
2024-03-08T00:54:46.140Z,4.56
2024-03-08T00:57:13.790Z,4.61
2024-03-08T00:59:41.505Z,4.74
2024-03-08T01:02:09.886Z,4.84
2024-03-08T01:04:37.487Z,4.71
2024-03-08T01:07:05.176Z,4.86
2024-03-08T01:09:33.053Z,4.90
2024-03-08T01:12:02.352Z,4.84
2024-03-08T01:14:31.949Z,4.80
2024-03-08T01:16:59.795Z,4.33
2024-03-08T01:19:27.460Z,4.57
2024-03-08T01:21:56.756Z,4.35
2024-03-08T01:24:24.450Z,4.32
2024-03-08T01:26:52.095Z,4.35
2024-03-08T01:29:21.196Z,4.40
2024-03-08T01:31:48.798Z,4.31
2024-03-08T01:34:16.427Z,4.16
2024-03-08T01:36:44.074Z,4.24
2024-03-08T01:39:12.048Z,4.30
2024-03-08T01:41:41.278Z,4.60
2024-03-08T01:44:10.153Z,4.52
2024-03-08T01:46:39.140Z,4.44
2024-03-08T01:49:06.793Z,4.63
2024-03-08T01:51:34.796Z,4.32
2024-03-08T01:54:04.666Z,4.28
2024-03-08T01:56:33.462Z,4.23
2024-03-08T01:59:01.790Z,4.37
2024-03-08T02:01:33.305Z,4.50
2024-03-08T02:04:02.503Z,4.71
2024-03-08T02:06:30.821Z,4.80
2024-03-08T02:08:59.175Z,4.57
2024-03-08T02:11:27.025Z,4.56
2024-03-08T02:13:54.864Z,4.69
2024-03-08T02:16:23.524Z,4.76
2024-03-08T02:18:51.485Z,4.83
2024-03-08T02:21:20.815Z,4.78
2024-03-08T02:23:48.712Z,4.81
2024-03-08T02:26:16.868Z,4.63
2024-03-08T02:28:45.167Z,4.47
2024-03-08T02:31:13.037Z,4.59
2024-03-08T02:33:40.889Z,4.79
2024-03-08T02:36:09.217Z,4.78
2024-03-08T02:38:39.037Z,4.83
2024-03-08T02:41:06.993Z,4.82
2024-03-08T02:43:35.098Z,4.86
2024-03-08T02:46:02.750Z,4.80
2024-03-08T02:48:30.582Z,4.85
2024-03-08T02:50:58.322Z,4.93
2024-03-08T02:53:26.570Z,4.72
2024-03-08T02:55:56.230Z,4.78
2024-03-08T02:58:24.232Z,4.95
2024-03-08T03:00:52.104Z,4.88
2024-03-08T03:03:19.822Z,4.79
2024-03-08T03:05:49.437Z,4.75
2024-03-08T03:08:17.705Z,4.67
2024-03-08T03:10:45.380Z,4.55
2024-03-08T03:13:15.110Z,4.53
2024-03-08T03:15:42.921Z,4.67
2024-03-08T03:18:10.827Z,4.85
2024-03-08T03:20:41.670Z,4.60
2024-03-08T03:23:10.264Z,4.63
2024-03-08T03:25:39.732Z,4.41
2024-03-08T03:28:09.259Z,4.61
2024-03-08T03:30:38.377Z,4.78
2024-03-08T03:33:07.840Z,4.74
2024-03-08T03:35:37.186Z,4.68
2024-03-08T03:38:09.708Z,4.67
2024-03-08T03:40:39.492Z,4.59
2024-03-08T03:43:07.418Z,4.61
2024-03-08T03:45:35.781Z,4.78
2024-03-08T03:48:07.629Z,4.75
2024-03-08T03:50:36.877Z,4.59
2024-03-08T03:53:08.731Z,4.81
2024-03-08T03:55:37.859Z,4.74
2024-03-08T03:58:05.844Z,4.85
2024-03-08T04:00:33.996Z,4.75
2024-03-08T04:03:02.334Z,4.93
2024-03-08T04:05:31.885Z,4.86
2024-03-08T04:07:59.584Z,4.85
2024-03-08T04:10:27.403Z,4.75
2024-03-08T04:12:55.032Z,4.77
2024-03-08T04:15:22.770Z,4.94
2024-03-08T04:17:50.559Z,4.82
2024-03-08T04:20:18.652Z,4.72
2024-03-08T04:22:49.344Z,4.69
2024-03-08T04:25:17.231Z,4.87
2024-03-08T04:27:45.489Z,4.78
2024-03-08T04:30:14.233Z,4.90
2024-03-08T04:32:42.583Z,4.84
2024-03-08T04:35:10.670Z,4.90
2024-03-08T04:37:38.435Z,4.86
2024-03-08T04:40:09.132Z,4.78
2024-03-08T04:42:39.075Z,4.80
2024-03-08T04:45:09.119Z,4.71
2024-03-08T04:47:38.108Z,4.80
2024-03-08T04:50:06.800Z,4.65
2024-03-08T04:52:34.414Z,4.61
2024-03-08T04:55:03.001Z,4.61
2024-03-08T04:57:31.978Z,4.69
2024-03-08T05:00:00.186Z,4.71
2024-03-08T05:02:27.962Z,4.79
2024-03-08T05:04:56.257Z,4.65
2024-03-08T05:07:23.858Z,4.65
2024-03-08T05:09:52.848Z,4.66
2024-03-08T05:12:20.953Z,4.52
2024-03-08T05:14:51.007Z,4.67
2024-03-08T05:17:19.023Z,4.68
2024-03-08T05:19:47.014Z,4.62
2024-03-08T05:22:14.893Z,4.82
2024-03-08T05:24:43.573Z,4.68
2024-03-08T05:27:11.284Z,4.68
2024-03-08T05:29:39.349Z,4.50
2024-03-08T05:32:09.084Z,4.56
2024-03-08T05:34:36.798Z,4.56
2024-03-08T05:37:04.472Z,4.63
2024-03-08T05:39:32.281Z,4.59
2024-03-08T05:42:00.022Z,4.40
2024-03-08T05:44:29.691Z,4.51
2024-03-08T05:46:57.459Z,4.49
2024-03-08T05:49:27.012Z,4.52
2024-03-08T05:51:55.488Z,4.29
2024-03-08T05:54:25.679Z,4.49
2024-03-08T05:56:56.658Z,4.53
2024-03-08T05:59:24.914Z,4.57
2024-03-08T06:01:52.715Z,4.74
2024-03-08T06:04:20.366Z,4.36
2024-03-08T06:06:52.456Z,4.77
2024-03-08T06:09:24.772Z,4.64
2024-03-08T06:11:53.105Z,4.74
2024-03-08T06:14:20.807Z,4.87
2024-03-08T06:16:51.278Z,4.71
2024-03-08T06:19:19.482Z,4.54
2024-03-08T06:21:47.609Z,4.42
2024-03-08T06:24:17.167Z,4.97
2024-03-08T06:26:44.924Z,4.73
2024-03-08T06:29:13.892Z,5.15
2024-03-08T06:31:41.603Z,5.19
2024-03-08T06:34:10.232Z,5.20
2024-03-08T06:36:38.885Z,5.25
2024-03-08T06:39:10.157Z,5.21
2024-03-08T06:41:39.681Z,5.50
2024-03-08T06:44:09.024Z,5.82
2024-03-08T06:46:37.010Z,5.94
2024-03-08T06:49:04.797Z,6.17
2024-03-08T06:51:33.335Z,6.38
2024-03-08T06:54:01.090Z,6.60
2024-03-08T06:56:28.737Z,6.92
2024-03-08T06:58:57.775Z,7.08
2024-03-08T07:01:25.563Z,6.95
2024-03-08T07:03:53.525Z,7.28
2024-03-08T07:06:21.774Z,7.72
2024-03-08T07:08:49.856Z,7.71
2024-03-08T07:11:19.507Z,8.04
2024-03-08T07:13:47.463Z,8.19
2024-03-08T07:16:16.951Z,7.90
2024-03-08T07:18:45.416Z,8.22
2024-03-08T07:21:13.369Z,8.35
2024-03-08T07:24:04.433Z,8.36
2024-03-08T07:26:32.586Z,8.86
2024-03-08T07:29:01.478Z,8.79
2024-03-08T07:31:45.556Z,8.46
2024-03-08T07:34:13.531Z,9.06
2024-03-08T07:36:41.200Z,8.97
2024-03-08T07:39:12.475Z,9.28
2024-03-08T07:41:41.047Z,9.04
2024-03-08T07:44:08.799Z,8.84
2024-03-08T07:46:38.147Z,9.37
2024-03-08T07:49:05.807Z,9.57
2024-03-08T07:51:35.716Z,9.64
2024-03-08T07:54:05.366Z,9.40
2024-03-08T07:56:33.251Z,9.92
2024-03-08T07:59:00.927Z,9.58
2024-03-08T08:01:28.762Z,9.05
2024-03-08T08:03:58.060Z,9.45
2024-03-08T08:06:26.454Z,9.91
2024-03-08T08:08:54.392Z,10.43
2024-03-08T08:11:22.894Z,10.75
2024-03-08T08:13:50.543Z,11.05
2024-03-08T08:16:18.423Z,11.13
2024-03-08T08:18:47.266Z,11.19
2024-03-08T08:21:16.276Z,11.32
2024-03-08T08:23:43.922Z,11.53
2024-03-08T08:26:12.494Z,10.99
2024-03-08T08:28:41.939Z,11.22
2024-03-08T08:31:09.808Z,11.74
2024-03-08T08:33:37.681Z,11.26
2024-03-08T08:36:06.224Z,11.47
2024-03-08T08:38:35.215Z,11.65
2024-03-08T08:41:03.498Z,11.87
2024-03-08T08:43:31.295Z,11.64
2024-03-08T08:45:58.909Z,11.67
2024-03-08T08:48:26.654Z,11.38
2024-03-08T08:50:54.415Z,11.16
2024-03-08T08:53:22.917Z,11.57
2024-03-08T08:55:52.047Z,11.28
2024-03-08T08:58:20.644Z,11.41
2024-03-08T09:00:48.277Z,11.51
2024-03-08T09:03:18.143Z,11.81
2024-03-08T09:05:46.382Z,11.90
2024-03-08T09:08:14.756Z,11.97
2024-03-08T09:10:42.540Z,11.68
2024-03-08T09:13:18.298Z,11.76
2024-03-08T09:15:53.751Z,11.90
2024-03-08T09:18:21.472Z,11.84
2024-03-08T09:20:49.236Z,12.02
2024-03-08T09:23:18.002Z,12.05
2024-03-08T09:25:47.682Z,11.49
2024-03-08T09:28:17.540Z,11.14
2024-03-08T09:30:53.825Z,11.96
2024-03-08T09:33:24.957Z,11.37
2024-03-08T09:35:54.228Z,11.64
2024-03-08T09:38:22.643Z,11.75
2024-03-08T09:40:50.333Z,11.33
2024-03-08T09:43:22.577Z,11.88
2024-03-08T09:45:52.126Z,11.95
2024-03-08T09:48:21.070Z,11.88
2024-03-08T09:50:49.303Z,12.10
2024-03-08T09:53:17.769Z,11.65
2024-03-08T09:55:46.404Z,11.68
2024-03-08T09:58:37.285Z,11.62
2024-03-08T10:01:07.299Z,11.63
2024-03-08T10:03:35.707Z,11.49
2024-03-08T10:06:04.480Z,11.32
2024-03-08T10:08:32.225Z,11.30
2024-03-08T10:11:00.330Z,11.55
2024-03-08T10:13:29.261Z,11.20
2024-03-08T10:15:57.039Z,11.37
2024-03-08T10:18:26.076Z,11.67
2024-03-08T10:21:08.433Z,11.62
2024-03-08T10:23:36.532Z,11.51
2024-03-08T10:26:15.777Z,11.44
2024-03-08T10:28:45.413Z,11.02
2024-03-08T10:31:15.478Z,11.27
2024-03-08T10:33:46.259Z,11.28
2024-03-08T10:36:15.321Z,11.57
2024-03-08T10:38:47.903Z,11.68
2024-03-08T10:41:17.275Z,11.85
2024-03-08T10:44:02.348Z,12.05
2024-03-08T10:46:38.566Z,11.92
2024-03-08T10:49:14.598Z,11.75
2024-03-08T10:51:43.491Z,11.70
2024-03-08T10:54:12.674Z,11.78
2024-03-08T10:56:42.084Z,11.88
2024-03-08T10:59:10.897Z,11.85
2024-03-08T11:01:39.299Z,12.19
2024-03-08T11:04:08.401Z,11.62
2024-03-08T11:06:46.372Z,11.89
2024-03-08T11:09:31.837Z,12.07
2024-03-08T11:12:22.197Z,11.93
2024-03-08T11:14:51.590Z,12.33
2024-03-08T11:17:23.614Z,12.53
2024-03-08T11:19:57.566Z,12.72
2024-03-08T11:22:32.422Z,12.39
2024-03-08T11:25:01.962Z,11.98
2024-03-08T11:27:32.136Z,11.78
2024-03-08T11:30:21.395Z,12.01
2024-03-08T11:32:49.535Z,11.81
2024-03-08T11:35:23.945Z,12.23
2024-03-08T11:37:52.046Z,12.04
2024-03-08T11:40:21.030Z,11.94
2024-03-08T11:42:50.723Z,12.17
2024-03-08T11:45:19.069Z,12.41
2024-03-08T11:47:47.949Z,12.75
2024-03-08T11:50:16.276Z,12.52
2024-03-08T11:52:45.861Z,12.73
2024-03-08T11:55:14.212Z,12.86
2024-03-08T11:57:43.321Z,12.97
2024-03-08T12:00:24.004Z,12.89
2024-03-08T12:03:03.808Z,12.68
2024-03-08T12:05:32.400Z,13.03
2024-03-08T12:08:01.945Z,13.00
2024-03-08T12:10:30.789Z,12.96
2024-03-08T12:13:01.296Z,13.10
2024-03-08T12:15:33.929Z,13.20
2024-03-08T12:18:02.587Z,13.01
2024-03-08T12:20:31.990Z,13.02
2024-03-08T12:23:01.893Z,13.35
2024-03-08T12:25:32.466Z,12.96
2024-03-08T12:28:11.589Z,12.94
2024-03-08T12:30:48.824Z,12.67
2024-03-08T12:33:16.562Z,12.83
2024-03-08T12:35:54.518Z,12.80
2024-03-08T12:38:26.752Z,12.79
2024-03-08T12:40:58.170Z,13.26
2024-03-08T12:43:26.128Z,12.97
2024-03-08T12:45:56.089Z,12.46
2024-03-08T12:48:23.791Z,12.61
2024-03-08T12:50:53.050Z,12.84
2024-03-08T12:53:20.961Z,12.97
2024-03-08T12:55:49.943Z,13.15
2024-03-08T12:58:18.266Z,13.10
2024-03-08T13:00:46.492Z,13.21
2024-03-08T13:03:14.147Z,13.40
2024-03-08T13:05:43.504Z,13.31
2024-03-08T13:08:13.862Z,12.90
2024-03-08T13:10:44.312Z,13.35
2024-03-08T13:13:19.467Z,13.47
2024-03-08T13:15:47.365Z,13.36
2024-03-08T13:18:16.934Z,13.44
2024-03-08T13:20:50.188Z,13.53
2024-03-08T13:23:18.584Z,13.40
2024-03-08T13:25:48.617Z,13.53
2024-03-08T13:28:18.398Z,13.40
2024-03-08T13:30:46.682Z,13.66
2024-03-08T13:33:15.763Z,13.21
2024-03-08T13:35:43.433Z,13.42
2024-03-08T13:38:14.226Z,13.86
2024-03-08T13:40:42.197Z,13.30
2024-03-08T13:43:09.961Z,13.06
2024-03-08T13:45:39.794Z,13.55
2024-03-08T13:48:08.146Z,13.68
2024-03-08T13:50:36.069Z,13.82
2024-03-08T13:53:04.753Z,13.52
2024-03-08T13:55:32.542Z,13.53
2024-03-08T13:58:01.314Z,12.94
2024-03-08T14:00:34.141Z,13.03
2024-03-08T14:03:06.591Z,13.75
2024-03-08T14:05:35.806Z,13.38
2024-03-08T14:08:04.605Z,13.38
2024-03-08T14:10:32.897Z,13.30
2024-03-08T14:13:00.963Z,13.48
2024-03-08T14:15:28.710Z,13.62
2024-03-08T14:17:56.973Z,13.61
2024-03-08T14:20:27.167Z,13.88
2024-03-08T14:22:55.977Z,14.11
2024-03-08T14:25:24.780Z,14.01
2024-03-08T14:27:54.659Z,14.07
2024-03-08T14:30:35.704Z,13.92
2024-03-08T14:33:04.238Z,13.90
2024-03-08T14:35:35.429Z,13.74
2024-03-08T14:38:03.243Z,13.78
2024-03-08T14:40:31.521Z,13.65
2024-03-08T14:42:59.274Z,13.62
2024-03-08T14:45:27.632Z,13.60
2024-03-08T14:47:56.026Z,13.59
2024-03-08T14:50:25.069Z,13.74
2024-03-08T14:52:54.582Z,12.94
2024-03-08T14:55:23.639Z,12.84
2024-03-08T14:57:52.427Z,12.68
2024-03-08T15:00:27.864Z,12.81
2024-03-08T15:02:56.161Z,13.00
2024-03-08T15:05:28.105Z,12.90
2024-03-08T15:07:57.390Z,12.81
2024-03-08T15:10:26.928Z,12.97
2024-03-08T15:12:56.854Z,13.06
2024-03-08T15:15:27.130Z,12.79
2024-03-08T15:17:58.459Z,13.16
2024-03-08T15:20:30.976Z,13.33
2024-03-08T15:23:00.703Z,13.36
2024-03-08T15:25:28.821Z,13.31
2024-03-08T15:27:58.767Z,13.49
2024-03-08T15:30:27.577Z,13.46
2024-03-08T15:32:58.213Z,13.55
2024-03-08T15:35:26.843Z,13.54
2024-03-08T15:37:57.262Z,13.48
2024-03-08T15:40:26.668Z,13.26
2024-03-08T15:42:57.599Z,13.34
2024-03-08T15:45:26.884Z,13.25
2024-03-08T15:47:54.545Z,13.14
2024-03-08T15:50:24.166Z,13.27
2024-03-08T15:52:53.850Z,13.04
2024-03-08T15:55:24.123Z,13.28
2024-03-08T15:57:54.905Z,12.97
2024-03-08T16:00:34.422Z,12.98
2024-03-08T16:03:07.341Z,12.99
2024-03-08T16:05:35.532Z,13.12
2024-03-08T16:08:03.479Z,12.93
2024-03-08T16:10:31.400Z,12.56
2024-03-08T16:13:01.648Z,12.67
2024-03-08T16:15:29.310Z,12.39
2024-03-08T16:17:57.043Z,12.66
2024-03-08T16:20:24.708Z,12.60
2024-03-08T16:22:53.627Z,12.62
2024-03-08T16:25:21.516Z,12.56
2024-03-08T16:27:49.338Z,12.53
2024-03-08T16:30:18.447Z,12.34
2024-03-08T16:32:51.510Z,12.18
2024-03-08T16:35:20.725Z,12.26
2024-03-08T16:37:49.378Z,12.28
2024-03-08T16:40:18.378Z,12.22
2024-03-08T16:42:46.693Z,12.03
2024-03-08T16:45:15.374Z,12.03
2024-03-08T16:47:54.934Z,12.14
2024-03-08T16:50:51.010Z,11.87
2024-03-08T16:53:35.781Z,11.82
2024-03-08T16:56:07.269Z,11.68
2024-03-08T16:58:39.313Z,11.74
2024-03-08T17:01:07.156Z,11.70
2024-03-08T17:03:44.936Z,11.62
2024-03-08T17:06:23.929Z,11.62
2024-03-08T17:08:53.001Z,11.49
2024-03-08T17:11:22.235Z,11.42
2024-03-08T17:13:50.324Z,11.47
2024-03-08T17:16:18.149Z,11.54
2024-03-08T17:18:47.115Z,11.26
2024-03-08T17:21:15.299Z,11.31
2024-03-08T17:23:42.905Z,11.38
2024-03-08T17:26:10.712Z,11.19
2024-03-08T17:28:42.629Z,11.27
2024-03-08T17:31:12.969Z,11.07
2024-03-08T17:33:42.807Z,11.05
2024-03-08T17:36:12.735Z,10.94
2024-03-08T17:38:48.016Z,10.88
2024-03-08T17:41:24.513Z,10.93
2024-03-08T17:43:53.063Z,10.94
2024-03-08T17:46:21.275Z,10.80
2024-03-08T17:48:49.051Z,10.88
2024-03-08T17:51:18.053Z,10.81
2024-03-08T17:53:47.396Z,10.79
2024-03-08T17:56:16.108Z,10.71
2024-03-08T17:58:43.853Z,10.78
2024-03-08T18:01:13.422Z,10.69
2024-03-08T18:03:41.717Z,10.61
2024-03-08T18:06:10.126Z,10.59
2024-03-08T18:08:39.269Z,10.43
2024-03-08T18:11:07.581Z,10.45
2024-03-08T18:13:36.095Z,10.19
2024-03-08T18:16:03.732Z,10.32
2024-03-08T18:18:32.757Z,10.29
2024-03-08T18:21:00.376Z,10.29
2024-03-08T18:23:30.106Z,10.21
2024-03-08T18:25:59.105Z,10.20
2024-03-08T18:28:32.035Z,9.90
2024-03-08T18:31:00.807Z,9.82
2024-03-08T18:33:29.144Z,9.94
2024-03-08T18:35:57.452Z,10.00
2024-03-08T18:38:34.494Z,9.89
2024-03-08T18:41:07.176Z,9.80
2024-03-08T18:43:35.185Z,9.93
2024-03-08T18:46:05.104Z,9.85
2024-03-08T18:48:32.758Z,9.64
2024-03-08T18:51:01.945Z,9.73
2024-03-08T18:53:30.398Z,9.66
2024-03-08T18:55:58.176Z,9.67
2024-03-08T18:58:39.181Z,9.66
2024-03-08T19:01:13.140Z,9.48
2024-03-08T19:03:42.076Z,9.36
2024-03-08T19:06:09.867Z,9.24
2024-03-08T19:08:37.947Z,9.39
2024-03-08T19:11:06.075Z,9.23
2024-03-08T19:13:35.862Z,9.22
2024-03-08T19:16:03.492Z,9.23
2024-03-08T19:18:31.318Z,9.30
2024-03-08T19:20:59.594Z,9.30
2024-03-08T19:23:28.282Z,8.97
2024-03-08T19:25:56.072Z,9.02
2024-03-08T19:28:23.767Z,9.03
2024-03-08T19:30:55.176Z,8.91
2024-03-08T19:33:22.975Z,8.88
2024-03-08T19:35:50.695Z,9.06
2024-03-08T19:38:21.125Z,8.87
2024-03-08T19:40:49.651Z,8.95
2024-03-08T19:43:17.503Z,8.92
2024-03-08T19:45:46.396Z,8.80
2024-03-08T19:48:19.351Z,8.63
2024-03-08T19:50:47.910Z,8.65
2024-03-08T19:53:17.103Z,8.64
2024-03-08T19:55:50.064Z,8.66
2024-03-08T19:58:21.521Z,8.24
2024-03-08T20:00:50.478Z,8.39
2024-03-08T20:03:24.554Z,8.50
2024-03-08T20:05:54.355Z,8.49
2024-03-08T20:08:23.986Z,8.56
2024-03-08T20:10:52.974Z,8.33
2024-03-08T20:13:20.996Z,8.48
2024-03-08T20:15:53.915Z,8.29
2024-03-08T20:18:27.382Z,8.58
2024-03-08T20:20:56.019Z,8.42
2024-03-08T20:23:24.315Z,8.22
2024-03-08T20:25:52.689Z,8.19
2024-03-08T20:28:20.545Z,8.37
2024-03-08T20:30:48.761Z,8.28
2024-03-08T20:33:17.626Z,8.38
2024-03-08T20:35:47.282Z,8.13
2024-03-08T20:38:21.442Z,8.37
2024-03-08T20:40:50.765Z,8.19
2024-03-08T20:43:19.018Z,7.89
2024-03-08T20:45:47.760Z,7.84
2024-03-08T20:48:16.380Z,7.92
2024-03-08T20:50:48.795Z,8.21
2024-03-08T20:53:16.870Z,8.12
2024-03-08T20:55:44.758Z,8.27
2024-03-08T20:58:12.723Z,8.26
2024-03-08T21:00:49.367Z,8.15
2024-03-08T21:03:19.862Z,8.09
2024-03-08T21:05:51.538Z,8.02
2024-03-08T21:08:24.920Z,7.97
2024-03-08T21:10:54.560Z,8.10
2024-03-08T21:13:25.063Z,7.87
2024-03-08T21:15:53.457Z,8.01
2024-03-08T21:18:22.242Z,8.00
2024-03-08T21:20:52.034Z,7.78
2024-03-08T21:23:20.316Z,7.75
2024-03-08T21:25:48.038Z,7.77
2024-03-08T21:28:16.531Z,7.66
2024-03-08T21:30:44.864Z,7.92
2024-03-08T21:33:13.036Z,7.99
2024-03-08T21:35:41.792Z,7.92
2024-03-08T21:38:11.863Z,7.99
2024-03-08T21:43:13.811Z,8.00
2024-03-08T21:45:43.500Z,7.94
2024-03-08T21:48:12.751Z,8.08
2024-03-08T21:50:40.697Z,7.96
2024-03-08T21:53:14.440Z,8.13
2024-03-08T21:55:49.698Z,8.05
2024-03-08T21:58:18.730Z,7.97
2024-03-08T22:00:48.169Z,8.08
2024-03-08T22:03:16.412Z,8.07
2024-03-08T22:05:44.680Z,8.07
2024-03-08T22:08:12.724Z,8.11
2024-03-08T22:10:40.413Z,8.19
2024-03-08T22:13:10.163Z,8.11
2024-03-08T22:15:38.702Z,8.11
2024-03-08T22:18:07.831Z,8.22
2024-03-08T22:20:35.691Z,8.12
2024-03-08T22:23:04.194Z,8.06
2024-03-08T22:25:32.819Z,8.31
2024-03-08T22:28:00.788Z,8.23
2024-03-08T22:30:29.849Z,8.24
2024-03-08T22:32:58.298Z,8.24
2024-03-08T22:35:26.867Z,8.19
2024-03-08T22:37:55.820Z,8.33
2024-03-08T22:40:26.311Z,8.38
2024-03-08T22:42:55.161Z,8.25
2024-03-08T22:45:26.741Z,8.42
2024-03-08T22:47:55.821Z,8.38
2024-03-08T22:50:25.610Z,8.31
2024-03-08T22:52:53.531Z,8.45
2024-03-08T22:55:22.273Z,8.31
2024-03-08T22:57:51.466Z,8.41
2024-03-08T23:00:44.885Z,8.44
2024-03-08T23:03:13.973Z,8.30
2024-03-08T23:05:42.440Z,8.35
2024-03-08T23:08:10.479Z,8.46
2024-03-08T23:10:40.073Z,8.44
2024-03-08T23:13:10.593Z,8.20
2024-03-08T23:15:39.997Z,8.36
2024-03-08T23:18:11.304Z,8.14
2024-03-08T23:20:43.391Z,8.19
2024-03-08T23:23:12.879Z,8.25
2024-03-08T23:25:41.594Z,8.38
2024-03-08T23:28:12.996Z,8.32
2024-03-08T23:30:42.351Z,8.28
2024-03-08T23:33:13.284Z,8.33
2024-03-08T23:35:44.634Z,8.31
2024-03-08T23:38:12.379Z,8.26
2024-03-08T23:40:40.743Z,8.02
2024-03-08T23:43:08.962Z,8.11
2024-03-08T23:45:36.751Z,8.32
2024-03-08T23:48:07.190Z,8.17
2024-03-08T23:50:35.354Z,8.26
2024-03-08T23:53:06.986Z,8.15
2024-03-08T23:55:36.910Z,8.16
2024-03-08T23:58:07.801Z,8.17
